sensor_id;sensor_type;location;lat;lon;timestamp;P1;durP1;ratioP1;P2;durP2;ratioP2
69334;SDS011;56477;52.742;15.242;2023-03-12T00:01:38;7.68;;;2.60;;
69334;SDS011;56477;52.742;15.242;2023-03-12T00:04:04;6.40;;;1.97;;
69334;SDS011;56477;52.742;15.242;2023-03-12T00:06:30;6.05;;;2.03;;
69334;SDS011;56477;52.742;15.242;2023-03-12T00:08:56;3.97;;;1.33;;
69334;SDS011;56477;52.742;15.242;2023-03-12T00:11:23;4.35;;;1.70;;
69334;SDS011;56477;52.742;15.242;2023-03-12T00:13:53;8.00;;;2.20;;
69334;SDS011;56477;52.742;15.242;2023-03-12T00:16:21;6.38;;;2.03;;
69334;SDS011;56477;52.742;15.242;2023-03-12T00:18:48;5.20;;;1.48;;
69334;SDS011;56477;52.742;15.242;2023-03-12T00:21:15;3.88;;;1.35;;
69334;SDS011;56477;52.742;15.242;2023-03-12T00:23:41;7.55;;;1.88;;
69334;SDS011;56477;52.742;15.242;2023-03-12T00:26:08;2.47;;;0.90;;
69334;SDS011;56477;52.742;15.242;2023-03-12T00:28:36;7.38;;;1.92;;
69334;SDS011;56477;52.742;15.242;2023-03-12T00:31:11;3.05;;;1.25;;
69334;SDS011;56477;52.742;15.242;2023-03-12T00:33:39;7.00;;;1.23;;
69334;SDS011;56477;52.742;15.242;2023-03-12T00:36:05;4.47;;;1.13;;
69334;SDS011;56477;52.742;15.242;2023-03-12T00:38:31;2.97;;;0.90;;
69334;SDS011;56477;52.742;15.242;2023-03-12T00:40:57;3.97;;;1.13;;
69334;SDS011;56477;52.742;15.242;2023-03-12T00:43:23;8.27;;;1.52;;
69334;SDS011;56477;52.742;15.242;2023-03-12T00:45:49;7.43;;;1.02;;
69334;SDS011;56477;52.742;15.242;2023-03-12T00:48:14;5.47;;;1.57;;
69334;SDS011;56477;52.742;15.242;2023-03-12T00:50:40;4.20;;;1.13;;
69334;SDS011;56477;52.742;15.242;2023-03-12T00:53:06;2.50;;;0.60;;
69334;SDS011;56477;52.742;15.242;2023-03-12T00:55:32;2.33;;;0.68;;
69334;SDS011;56477;52.742;15.242;2023-03-12T00:57:58;5.35;;;1.88;;
69334;SDS011;56477;52.742;15.242;2023-03-12T01:00:24;2.97;;;0.67;;
69334;SDS011;56477;52.742;15.242;2023-03-12T01:02:50;3.75;;;0.90;;
69334;SDS011;56477;52.742;15.242;2023-03-12T01:05:16;3.95;;;1.00;;
69334;SDS011;56477;52.742;15.242;2023-03-12T01:07:42;4.30;;;1.40;;
69334;SDS011;56477;52.742;15.242;2023-03-12T01:10:09;7.53;;;1.90;;
69334;SDS011;56477;52.742;15.242;2023-03-12T01:12:38;2.90;;;0.82;;
69334;SDS011;56477;52.742;15.242;2023-03-12T01:15:04;4.22;;;1.15;;
69334;SDS011;56477;52.742;15.242;2023-03-12T01:17:30;3.17;;;1.08;;
69334;SDS011;56477;52.742;15.242;2023-03-12T01:19:56;4.20;;;1.27;;
69334;SDS011;56477;52.742;15.242;2023-03-12T01:22:22;3.90;;;1.10;;
69334;SDS011;56477;52.742;15.242;2023-03-12T01:24:48;3.05;;;0.88;;
69334;SDS011;56477;52.742;15.242;2023-03-12T01:27:14;4.78;;;1.25;;
69334;SDS011;56477;52.742;15.242;2023-03-12T01:29:40;6.68;;;1.48;;
69334;SDS011;56477;52.742;15.242;2023-03-12T01:32:06;7.73;;;1.77;;
69334;SDS011;56477;52.742;15.242;2023-03-12T01:34:32;4.63;;;1.52;;
69334;SDS011;56477;52.742;15.242;2023-03-12T01:37:00;2.95;;;1.30;;
69334;SDS011;56477;52.742;15.242;2023-03-12T01:39:26;3.30;;;1.03;;
69334;SDS011;56477;52.742;15.242;2023-03-12T01:41:52;6.15;;;1.15;;
69334;SDS011;56477;52.742;15.242;2023-03-12T01:44:18;6.28;;;1.30;;
69334;SDS011;56477;52.742;15.242;2023-03-12T01:46:44;4.87;;;0.80;;
69334;SDS011;56477;52.742;15.242;2023-03-12T01:49:24;7.55;;;1.52;;
69334;SDS011;56477;52.742;15.242;2023-03-12T01:52:00;4.00;;;1.40;;
69334;SDS011;56477;52.742;15.242;2023-03-12T01:54:55;6.55;;;1.02;;
69334;SDS011;56477;52.742;15.242;2023-03-12T01:57:38;6.72;;;1.02;;
69334;SDS011;56477;52.742;15.242;2023-03-12T02:00:09;3.73;;;0.60;;
69334;SDS011;56477;52.742;15.242;2023-03-12T02:02:38;3.03;;;1.08;;
69334;SDS011;56477;52.742;15.242;2023-03-12T02:05:08;6.30;;;0.80;;
69334;SDS011;56477;52.742;15.242;2023-03-12T02:07:39;6.47;;;1.27;;
69334;SDS011;56477;52.742;15.242;2023-03-12T02:10:06;5.10;;;1.00;;
69334;SDS011;56477;52.742;15.242;2023-03-12T02:12:31;5.70;;;0.87;;
69334;SDS011;56477;52.742;15.242;2023-03-12T02:14:57;2.53;;;0.82;;
69334;SDS011;56477;52.742;15.242;2023-03-12T02:17:23;3.55;;;0.80;;
69334;SDS011;56477;52.742;15.242;2023-03-12T02:20:00;4.53;;;1.10;;
69334;SDS011;56477;52.742;15.242;2023-03-12T02:22:35;2.92;;;0.55;;
69334;SDS011;56477;52.742;15.242;2023-03-12T02:27:43;5.35;;;1.05;;
69334;SDS011;56477;52.742;15.242;2023-03-12T02:30:10;3.65;;;1.13;;
69334;SDS011;56477;52.742;15.242;2023-03-12T02:32:40;1.17;;;0.50;;
69334;SDS011;56477;52.742;15.242;2023-03-12T02:35:08;4.45;;;0.90;;
69334;SDS011;56477;52.742;15.242;2023-03-12T02:37:34;5.03;;;0.82;;
69334;SDS011;56477;52.742;15.242;2023-03-12T02:40:09;3.05;;;0.60;;
69334;SDS011;56477;52.742;15.242;2023-03-12T02:42:41;3.92;;;0.95;;
69334;SDS011;56477;52.742;15.242;2023-03-12T02:45:07;6.20;;;1.20;;
69334;SDS011;56477;52.742;15.242;2023-03-12T02:47:33;2.03;;;0.60;;
69334;SDS011;56477;52.742;15.242;2023-03-12T02:49:59;2.38;;;0.82;;
69334;SDS011;56477;52.742;15.242;2023-03-12T02:52:25;4.47;;;0.80;;
69334;SDS011;56477;52.742;15.242;2023-03-12T02:54:51;3.80;;;1.08;;
69334;SDS011;56477;52.742;15.242;2023-03-12T02:57:17;4.97;;;1.73;;
69334;SDS011;56477;52.742;15.242;2023-03-12T02:59:43;4.75;;;1.65;;
69334;SDS011;56477;52.742;15.242;2023-03-12T03:02:08;3.70;;;1.10;;
69334;SDS011;56477;52.742;15.242;2023-03-12T03:04:37;5.43;;;1.45;;
69334;SDS011;56477;52.742;15.242;2023-03-12T03:07:03;5.55;;;1.55;;
69334;SDS011;56477;52.742;15.242;2023-03-12T03:09:29;6.35;;;1.50;;
69334;SDS011;56477;52.742;15.242;2023-03-12T03:11:55;3.13;;;0.70;;
69334;SDS011;56477;52.742;15.242;2023-03-12T03:14:21;3.22;;;0.85;;
69334;SDS011;56477;52.742;15.242;2023-03-12T03:16:47;4.38;;;1.58;;
69334;SDS011;56477;52.742;15.242;2023-03-12T03:19:13;4.05;;;0.88;;
69334;SDS011;56477;52.742;15.242;2023-03-12T03:21:39;2.63;;;1.00;;
69334;SDS011;56477;52.742;15.242;2023-03-12T03:24:05;5.03;;;1.05;;
69334;SDS011;56477;52.742;15.242;2023-03-12T03:26:31;2.00;;;0.73;;
69334;SDS011;56477;52.742;15.242;2023-03-12T03:28:57;4.83;;;1.27;;
69334;SDS011;56477;52.742;15.242;2023-03-12T03:31:23;4.97;;;0.80;;
69334;SDS011;56477;52.742;15.242;2023-03-12T03:33:49;6.40;;;0.70;;
69334;SDS011;56477;52.742;15.242;2023-03-12T03:36:15;3.77;;;1.27;;
69334;SDS011;56477;52.742;15.242;2023-03-12T03:38:41;2.75;;;1.00;;
69334;SDS011;56477;52.742;15.242;2023-03-12T03:41:11;4.68;;;1.00;;
69334;SDS011;56477;52.742;15.242;2023-03-12T03:43:37;3.90;;;1.02;;
69334;SDS011;56477;52.742;15.242;2023-03-12T03:46:03;5.33;;;1.00;;
69334;SDS011;56477;52.742;15.242;2023-03-12T03:48:30;2.47;;;0.82;;
69334;SDS011;56477;52.742;15.242;2023-03-12T03:51:00;8.30;;;2.05;;
69334;SDS011;56477;52.742;15.242;2023-03-12T03:53:28;1.88;;;0.55;;
69334;SDS011;56477;52.742;15.242;2023-03-12T03:55:54;3.30;;;0.88;;
69334;SDS011;56477;52.742;15.242;2023-03-12T03:58:20;9.20;;;1.60;;
69334;SDS011;56477;52.742;15.242;2023-03-12T04:00:46;6.40;;;1.48;;
69334;SDS011;56477;52.742;15.242;2023-03-12T04:03:12;5.68;;;1.17;;
69334;SDS011;56477;52.742;15.242;2023-03-12T04:05:38;5.43;;;1.73;;
69334;SDS011;56477;52.742;15.242;2023-03-12T04:08:10;5.50;;;1.20;;
69334;SDS011;56477;52.742;15.242;2023-03-12T04:10:36;5.00;;;1.65;;
69334;SDS011;56477;52.742;15.242;2023-03-12T04:13:02;5.20;;;1.73;;
69334;SDS011;56477;52.742;15.242;2023-03-12T04:15:28;3.08;;;1.17;;
69334;SDS011;56477;52.742;15.242;2023-03-12T04:17:54;4.60;;;1.30;;
69334;SDS011;56477;52.742;15.242;2023-03-12T04:20:20;2.25;;;0.55;;
69334;SDS011;56477;52.742;15.242;2023-03-12T04:22:46;3.85;;;1.42;;
69334;SDS011;56477;52.742;15.242;2023-03-12T04:25:12;2.97;;;1.13;;
69334;SDS011;56477;52.742;15.242;2023-03-12T04:27:38;2.47;;;0.80;;
69334;SDS011;56477;52.742;15.242;2023-03-12T04:30:03;5.65;;;1.10;;
69334;SDS011;56477;52.742;15.242;2023-03-12T04:32:30;5.53;;;1.10;;
69334;SDS011;56477;52.742;15.242;2023-03-12T04:34:55;4.05;;;1.42;;
69334;SDS011;56477;52.742;15.242;2023-03-12T04:37:22;3.35;;;0.60;;
69334;SDS011;56477;52.742;15.242;2023-03-12T04:39:47;3.67;;;1.47;;
69334;SDS011;56477;52.742;15.242;2023-03-12T04:42:13;5.65;;;1.42;;
69334;SDS011;56477;52.742;15.242;2023-03-12T04:44:39;4.03;;;1.23;;
69334;SDS011;56477;52.742;15.242;2023-03-12T04:47:06;4.22;;;1.00;;
69334;SDS011;56477;52.742;15.242;2023-03-12T04:49:32;3.40;;;0.70;;
69334;SDS011;56477;52.742;15.242;2023-03-12T04:51:58;12.25;;;1.55;;
69334;SDS011;56477;52.742;15.242;2023-03-12T04:54:23;4.57;;;1.37;;
69334;SDS011;56477;52.742;15.242;2023-03-12T04:56:50;3.23;;;1.00;;
69334;SDS011;56477;52.742;15.242;2023-03-12T04:59:15;3.45;;;1.17;;
69334;SDS011;56477;52.742;15.242;2023-03-12T05:01:42;5.30;;;1.30;;
69334;SDS011;56477;52.742;15.242;2023-03-12T05:04:08;2.50;;;0.63;;
69334;SDS011;56477;52.742;15.242;2023-03-12T05:06:34;4.28;;;1.02;;
69334;SDS011;56477;52.742;15.242;2023-03-12T05:09:00;4.82;;;1.02;;
69334;SDS011;56477;52.742;15.242;2023-03-12T05:11:26;4.38;;;1.15;;
69334;SDS011;56477;52.742;15.242;2023-03-12T05:13:52;6.77;;;1.70;;
69334;SDS011;56477;52.742;15.242;2023-03-12T05:16:18;4.55;;;1.10;;
69334;SDS011;56477;52.742;15.242;2023-03-12T05:18:44;5.28;;;1.20;;
69334;SDS011;56477;52.742;15.242;2023-03-12T05:21:15;3.70;;;1.10;;
69334;SDS011;56477;52.742;15.242;2023-03-12T05:23:43;3.88;;;1.45;;
69334;SDS011;56477;52.742;15.242;2023-03-12T05:28:53;5.35;;;1.33;;
69334;SDS011;56477;52.742;15.242;2023-03-12T05:31:19;4.03;;;1.00;;
69334;SDS011;56477;52.742;15.242;2023-03-12T05:33:46;5.75;;;1.42;;
69334;SDS011;56477;52.742;15.242;2023-03-12T05:36:12;4.28;;;1.63;;
69334;SDS011;56477;52.742;15.242;2023-03-12T05:38:38;2.87;;;1.13;;
69334;SDS011;56477;52.742;15.242;2023-03-12T05:41:08;5.00;;;0.90;;
69334;SDS011;56477;52.742;15.242;2023-03-12T05:43:35;5.15;;;1.73;;
69334;SDS011;56477;52.742;15.242;2023-03-12T05:46:02;8.80;;;1.48;;
69334;SDS011;56477;52.742;15.242;2023-03-12T05:48:29;5.78;;;1.25;;
69334;SDS011;56477;52.742;15.242;2023-03-12T05:50:56;4.00;;;1.17;;
69334;SDS011;56477;52.742;15.242;2023-03-12T05:53:22;4.05;;;1.30;;
69334;SDS011;56477;52.742;15.242;2023-03-12T05:55:48;7.88;;;1.38;;
69334;SDS011;56477;52.742;15.242;2023-03-12T05:58:14;11.00;;;1.23;;
69334;SDS011;56477;52.742;15.242;2023-03-12T06:00:40;5.50;;;1.85;;
69334;SDS011;56477;52.742;15.242;2023-03-12T06:03:07;5.97;;;1.92;;
69334;SDS011;56477;52.742;15.242;2023-03-12T06:05:34;4.55;;;1.75;;
69334;SDS011;56477;52.742;15.242;2023-03-12T06:08:00;5.40;;;1.48;;
69334;SDS011;56477;52.742;15.242;2023-03-12T06:10:28;3.40;;;1.10;;
69334;SDS011;56477;52.742;15.242;2023-03-12T06:12:54;2.95;;;1.38;;
69334;SDS011;56477;52.742;15.242;2023-03-12T06:15:20;4.47;;;1.13;;
69334;SDS011;56477;52.742;15.242;2023-03-12T06:17:46;4.55;;;1.13;;
69334;SDS011;56477;52.742;15.242;2023-03-12T06:20:12;6.18;;;1.52;;
69334;SDS011;56477;52.742;15.242;2023-03-12T06:22:38;9.27;;;1.40;;
69334;SDS011;56477;52.742;15.242;2023-03-12T06:25:04;2.78;;;0.82;;
69334;SDS011;56477;52.742;15.242;2023-03-12T06:27:30;8.25;;;2.22;;
69334;SDS011;56477;52.742;15.242;2023-03-12T06:29:57;4.53;;;1.00;;
69334;SDS011;56477;52.742;15.242;2023-03-12T06:32:22;3.47;;;1.00;;
69334;SDS011;56477;52.742;15.242;2023-03-12T06:34:49;3.47;;;1.30;;
69334;SDS011;56477;52.742;15.242;2023-03-12T06:37:14;5.22;;;2.03;;
69334;SDS011;56477;52.742;15.242;2023-03-12T06:39:41;4.20;;;1.95;;
69334;SDS011;56477;52.742;15.242;2023-03-12T06:42:07;3.50;;;1.03;;
69334;SDS011;56477;52.742;15.242;2023-03-12T06:44:33;3.38;;;1.33;;
69334;SDS011;56477;52.742;15.242;2023-03-12T06:46:59;2.10;;;1.08;;
69334;SDS011;56477;52.742;15.242;2023-03-12T06:49:25;5.78;;;2.08;;
69334;SDS011;56477;52.742;15.242;2023-03-12T06:51:51;3.60;;;1.43;;
69334;SDS011;56477;52.742;15.242;2023-03-12T06:54:18;6.82;;;2.08;;
69334;SDS011;56477;52.742;15.242;2023-03-12T06:56:43;8.90;;;2.40;;
69334;SDS011;56477;52.742;15.242;2023-03-12T06:59:10;7.80;;;2.10;;
69334;SDS011;56477;52.742;15.242;2023-03-12T07:01:36;4.37;;;2.17;;
69334;SDS011;56477;52.742;15.242;2023-03-12T07:04:02;4.05;;;1.25;;
69334;SDS011;56477;52.742;15.242;2023-03-12T07:06:28;5.07;;;2.17;;
69334;SDS011;56477;52.742;15.242;2023-03-12T07:08:54;5.80;;;1.27;;
69334;SDS011;56477;52.742;15.242;2023-03-12T07:11:19;5.13;;;1.25;;
69334;SDS011;56477;52.742;15.242;2023-03-12T07:13:46;3.33;;;1.13;;
69334;SDS011;56477;52.742;15.242;2023-03-12T07:16:11;4.67;;;1.47;;
69334;SDS011;56477;52.742;15.242;2023-03-12T07:18:39;6.38;;;1.60;;
69334;SDS011;56477;52.742;15.242;2023-03-12T07:21:05;4.30;;;1.40;;
69334;SDS011;56477;52.742;15.242;2023-03-12T07:23:31;4.27;;;1.90;;
69334;SDS011;56477;52.742;15.242;2023-03-12T07:25:57;4.68;;;1.70;;
69334;SDS011;56477;52.742;15.242;2023-03-12T07:28:23;6.55;;;2.28;;
69334;SDS011;56477;52.742;15.242;2023-03-12T07:30:48;7.07;;;2.00;;
69334;SDS011;56477;52.742;15.242;2023-03-12T07:33:16;5.80;;;2.15;;
69334;SDS011;56477;52.742;15.242;2023-03-12T07:35:44;3.88;;;2.03;;
69334;SDS011;56477;52.742;15.242;2023-03-12T07:38:11;6.00;;;2.25;;
69334;SDS011;56477;52.742;15.242;2023-03-12T07:40:36;5.90;;;1.83;;
69334;SDS011;56477;52.742;15.242;2023-03-12T07:43:03;4.40;;;1.88;;
69334;SDS011;56477;52.742;15.242;2023-03-12T07:45:36;6.10;;;2.03;;
69334;SDS011;56477;52.742;15.242;2023-03-12T07:48:04;2.97;;;1.73;;
69334;SDS011;56477;52.742;15.242;2023-03-12T07:50:31;5.93;;;1.73;;
69334;SDS011;56477;52.742;15.242;2023-03-12T07:52:57;3.33;;;1.52;;
69334;SDS011;56477;52.742;15.242;2023-03-12T07:55:23;6.03;;;1.75;;
69334;SDS011;56477;52.742;15.242;2023-03-12T07:57:49;3.07;;;1.30;;
69334;SDS011;56477;52.742;15.242;2023-03-12T08:00:15;6.80;;;2.38;;
69334;SDS011;56477;52.742;15.242;2023-03-12T08:02:41;5.38;;;1.35;;
69334;SDS011;56477;52.742;15.242;2023-03-12T08:05:07;5.53;;;1.60;;
69334;SDS011;56477;52.742;15.242;2023-03-12T08:07:34;4.57;;;2.10;;
69334;SDS011;56477;52.742;15.242;2023-03-12T08:10:01;4.28;;;1.50;;
69334;SDS011;56477;52.742;15.242;2023-03-12T08:12:28;5.32;;;1.33;;
69334;SDS011;56477;52.742;15.242;2023-03-12T08:14:54;4.47;;;1.70;;
69334;SDS011;56477;52.742;15.242;2023-03-12T08:17:20;4.38;;;1.35;;
69334;SDS011;56477;52.742;15.242;2023-03-12T08:19:47;3.53;;;1.50;;
69334;SDS011;56477;52.742;15.242;2023-03-12T08:22:13;6.78;;;1.20;;
69334;SDS011;56477;52.742;15.242;2023-03-12T08:24:39;2.37;;;1.00;;
69334;SDS011;56477;52.742;15.242;2023-03-12T08:27:05;6.38;;;1.50;;
69334;SDS011;56477;52.742;15.242;2023-03-12T08:29:30;5.57;;;0.98;;
69334;SDS011;56477;52.742;15.242;2023-03-12T08:31:58;4.78;;;2.03;;
69334;SDS011;56477;52.742;15.242;2023-03-12T08:34:24;5.40;;;1.20;;
69334;SDS011;56477;52.742;15.242;2023-03-12T08:36:50;5.57;;;1.67;;
69334;SDS011;56477;52.742;15.242;2023-03-12T08:39:17;3.00;;;1.27;;
69334;SDS011;56477;52.742;15.242;2023-03-12T08:41:43;5.55;;;1.90;;
69334;SDS011;56477;52.742;15.242;2023-03-12T08:44:09;4.00;;;1.20;;
69334;SDS011;56477;52.742;15.242;2023-03-12T08:46:35;3.72;;;1.27;;
69334;SDS011;56477;52.742;15.242;2023-03-12T08:49:01;6.47;;;1.15;;
69334;SDS011;56477;52.742;15.242;2023-03-12T08:51:27;3.75;;;1.10;;
69334;SDS011;56477;52.742;15.242;2023-03-12T08:53:52;3.17;;;1.10;;
69334;SDS011;56477;52.742;15.242;2023-03-12T08:56:19;5.65;;;1.10;;
69334;SDS011;56477;52.742;15.242;2023-03-12T08:58:44;2.83;;;1.00;;
69334;SDS011;56477;52.742;15.242;2023-03-12T09:01:11;4.45;;;1.65;;
69334;SDS011;56477;52.742;15.242;2023-03-12T09:03:37;7.40;;;1.33;;
69334;SDS011;56477;52.742;15.242;2023-03-12T09:06:07;4.65;;;0.95;;
69334;SDS011;56477;52.742;15.242;2023-03-12T09:08:40;2.97;;;1.23;;
69334;SDS011;56477;52.742;15.242;2023-03-12T09:11:07;3.47;;;0.53;;
69334;SDS011;56477;52.742;15.242;2023-03-12T09:13:34;4.40;;;1.20;;
69334;SDS011;56477;52.742;15.242;2023-03-12T09:16:01;2.47;;;1.15;;
69334;SDS011;56477;52.742;15.242;2023-03-12T09:18:28;1.85;;;0.73;;
69334;SDS011;56477;52.742;15.242;2023-03-12T09:20:55;4.90;;;1.10;;
69334;SDS011;56477;52.742;15.242;2023-03-12T09:23:21;2.80;;;0.87;;
69334;SDS011;56477;52.742;15.242;2023-03-12T09:25:48;3.45;;;1.15;;
69334;SDS011;56477;52.742;15.242;2023-03-12T09:28:14;3.92;;;1.10;;
69334;SDS011;56477;52.742;15.242;2023-03-12T09:30:41;7.18;;;1.10;;
69334;SDS011;56477;52.742;15.242;2023-03-12T09:33:07;4.60;;;1.00;;
69334;SDS011;56477;52.742;15.242;2023-03-12T09:35:33;3.20;;;0.80;;
69334;SDS011;56477;52.742;15.242;2023-03-12T09:38:00;4.97;;;0.75;;
69334;SDS011;56477;52.742;15.242;2023-03-12T09:40:29;4.50;;;0.93;;
69334;SDS011;56477;52.742;15.242;2023-03-12T09:45:47;2.85;;;0.77;;
69334;SDS011;56477;52.742;15.242;2023-03-12T09:48:15;2.00;;;0.60;;
69334;SDS011;56477;52.742;15.242;2023-03-12T09:50:45;5.40;;;1.40;;
69334;SDS011;56477;52.742;15.242;2023-03-12T09:56:01;3.67;;;1.05;;
69334;SDS011;56477;52.742;15.242;2023-03-12T09:58:36;5.30;;;1.10;;
69334;SDS011;56477;52.742;15.242;2023-03-12T10:04:12;1.83;;;0.52;;
69334;SDS011;56477;52.742;15.242;2023-03-12T10:09:32;3.15;;;0.85;;
69334;SDS011;56477;52.742;15.242;2023-03-12T10:25:40;4.57;;;0.70;;
69334;SDS011;56477;52.742;15.242;2023-03-12T10:28:13;2.00;;;0.40;;
69334;SDS011;56477;52.742;15.242;2023-03-12T10:30:44;2.50;;;0.50;;
69334;SDS011;56477;52.742;15.242;2023-03-12T10:33:18;2.20;;;0.47;;
69334;SDS011;56477;52.742;15.242;2023-03-12T10:35:45;5.85;;;0.70;;
69334;SDS011;56477;52.742;15.242;2023-03-12T10:38:16;3.20;;;0.80;;
69334;SDS011;56477;52.742;15.242;2023-03-12T10:40:46;3.20;;;0.80;;
69334;SDS011;56477;52.742;15.242;2023-03-12T10:43:12;2.25;;;0.47;;
69334;SDS011;56477;52.742;15.242;2023-03-12T10:45:40;4.43;;;0.82;;
69334;SDS011;56477;52.742;15.242;2023-03-12T10:48:21;2.95;;;0.63;;
69334;SDS011;56477;52.742;15.242;2023-03-12T10:53:45;1.10;;;0.30;;
69334;SDS011;56477;52.742;15.242;2023-03-12T10:56:16;4.20;;;1.15;;
69334;SDS011;56477;52.742;15.242;2023-03-12T10:58:44;4.13;;;0.50;;
69334;SDS011;56477;52.742;15.242;2023-03-12T11:03:43;1.40;;;0.60;;
69334;SDS011;56477;52.742;15.242;2023-03-12T11:06:20;3.55;;;0.60;;
69334;SDS011;56477;52.742;15.242;2023-03-12T11:09:02;2.33;;;0.40;;
69334;SDS011;56477;52.742;15.242;2023-03-12T11:11:31;3.08;;;0.77;;
69334;SDS011;56477;52.742;15.242;2023-03-12T11:14:32;2.92;;;0.50;;
69334;SDS011;56477;52.742;15.242;2023-03-12T11:16:53;5.33;;;1.30;;
69334;SDS011;56477;52.742;15.242;2023-03-12T11:19:33;2.00;;;0.85;;
69334;SDS011;56477;52.742;15.242;2023-03-12T11:22:00;4.60;;;1.15;;
69334;SDS011;56477;52.742;15.242;2023-03-12T11:24:32;5.13;;;0.95;;
69334;SDS011;56477;52.742;15.242;2023-03-12T11:27:19;2.00;;;0.68;;
69334;SDS011;56477;52.742;15.242;2023-03-12T11:29:51;3.93;;;0.73;;
69334;SDS011;56477;52.742;15.242;2023-03-12T11:32:28;5.38;;;0.88;;
69334;SDS011;56477;52.742;15.242;2023-03-12T11:34:57;2.92;;;1.00;;
69334;SDS011;56477;52.742;15.242;2023-03-12T11:56:22;3.23;;;0.77;;
69334;SDS011;56477;52.742;15.242;2023-03-12T12:07:28;3.33;;;0.75;;
69334;SDS011;56477;52.742;15.242;2023-03-12T12:13:11;1.75;;;0.65;;
69334;SDS011;56477;52.742;15.242;2023-03-12T12:24:36;5.37;;;1.50;;
69334;SDS011;56477;52.742;15.242;2023-03-12T12:27:25;1.75;;;1.00;;
69334;SDS011;56477;52.742;15.242;2023-03-12T12:36:09;3.15;;;0.85;;
69334;SDS011;56477;52.742;15.242;2023-03-12T12:38:42;4.47;;;0.63;;
69334;SDS011;56477;52.742;15.242;2023-03-12T12:48:51;3.90;;;1.00;;
69334;SDS011;56477;52.742;15.242;2023-03-12T12:51:21;2.97;;;1.20;;
69334;SDS011;56477;52.742;15.242;2023-03-12T12:56:45;4.28;;;1.65;;
69334;SDS011;56477;52.742;15.242;2023-03-12T13:02:15;3.20;;;1.20;;
69334;SDS011;56477;52.742;15.242;2023-03-12T13:04:43;4.23;;;1.03;;
69334;SDS011;56477;52.742;15.242;2023-03-12T13:09:47;5.20;;;1.33;;
69334;SDS011;56477;52.742;15.242;2023-03-12T13:14:49;1.65;;;0.43;;
69334;SDS011;56477;52.742;15.242;2023-03-12T13:20:39;3.90;;;0.45;;
69334;SDS011;56477;52.742;15.242;2023-03-12T13:23:40;2.28;;;1.13;;
69334;SDS011;56477;52.742;15.242;2023-03-12T13:31:53;5.85;;;1.30;;
69334;SDS011;56477;52.742;15.242;2023-03-12T13:36:46;3.87;;;1.43;;
69334;SDS011;56477;52.742;15.242;2023-03-12T13:41:45;1.17;;;0.38;;
69334;SDS011;56477;52.742;15.242;2023-03-12T13:52:32;3.63;;;0.68;;
69334;SDS011;56477;52.742;15.242;2023-03-12T13:55:06;1.90;;;1.02;;
69334;SDS011;56477;52.742;15.242;2023-03-12T13:57:49;2.87;;;0.50;;
69334;SDS011;56477;52.742;15.242;2023-03-12T14:00:22;3.85;;;0.70;;
69334;SDS011;56477;52.742;15.242;2023-03-12T14:03:15;2.97;;;0.68;;
69334;SDS011;56477;52.742;15.242;2023-03-12T14:16:44;3.17;;;1.02;;
69334;SDS011;56477;52.742;15.242;2023-03-12T14:19:17;3.08;;;0.80;;
69334;SDS011;56477;52.742;15.242;2023-03-12T14:21:47;2.80;;;0.80;;
69334;SDS011;56477;52.742;15.242;2023-03-12T14:24:37;1.60;;;0.50;;
69334;SDS011;56477;52.742;15.242;2023-03-12T14:27:10;1.88;;;0.35;;
69334;SDS011;56477;52.742;15.242;2023-03-12T14:32:23;6.75;;;0.98;;
69334;SDS011;56477;52.742;15.242;2023-03-12T14:34:54;3.05;;;0.70;;
69334;SDS011;56477;52.742;15.242;2023-03-12T14:37:31;2.80;;;1.00;;
69334;SDS011;56477;52.742;15.242;2023-03-12T14:40:23;3.40;;;0.88;;
69334;SDS011;56477;52.742;15.242;2023-03-12T14:42:57;1.52;;;0.63;;
69334;SDS011;56477;52.742;15.242;2023-03-12T14:45:24;3.80;;;0.93;;
69334;SDS011;56477;52.742;15.242;2023-03-12T14:47:55;7.05;;;1.25;;
69334;SDS011;56477;52.742;15.242;2023-03-12T14:50:29;2.33;;;0.40;;
69334;SDS011;56477;52.742;15.242;2023-03-12T14:53:38;4.28;;;0.80;;
69334;SDS011;56477;52.742;15.242;2023-03-12T14:59:03;6.70;;;1.20;;
69334;SDS011;56477;52.742;15.242;2023-03-12T15:01:47;5.05;;;1.65;;
69334;SDS011;56477;52.742;15.242;2023-03-12T15:04:14;5.43;;;2.30;;
69334;SDS011;56477;52.742;15.242;2023-03-12T15:06:53;2.95;;;1.13;;
69334;SDS011;56477;52.742;15.242;2023-03-12T15:09:23;3.70;;;1.08;;
69334;SDS011;56477;52.742;15.242;2023-03-12T15:11:57;4.57;;;0.70;;
69334;SDS011;56477;52.742;15.242;2023-03-12T15:14:32;2.67;;;0.82;;
69334;SDS011;56477;52.742;15.242;2023-03-12T15:17:04;3.67;;;0.73;;
69334;SDS011;56477;52.742;15.242;2023-03-12T15:19:34;2.08;;;0.63;;
69334;SDS011;56477;52.742;15.242;2023-03-12T15:22:02;3.65;;;0.73;;
69334;SDS011;56477;52.742;15.242;2023-03-12T15:24:29;1.20;;;0.32;;
69334;SDS011;56477;52.742;15.242;2023-03-12T15:30:00;3.37;;;0.67;;
69334;SDS011;56477;52.742;15.242;2023-03-12T15:38:27;6.85;;;1.58;;
69334;SDS011;56477;52.742;15.242;2023-03-12T15:40:55;7.03;;;2.25;;
69334;SDS011;56477;52.742;15.242;2023-03-12T15:43:25;7.70;;;2.00;;
69334;SDS011;56477;52.742;15.242;2023-03-12T15:45:55;5.60;;;1.55;;
69334;SDS011;56477;52.742;15.242;2023-03-12T15:50:56;5.50;;;1.70;;
69334;SDS011;56477;52.742;15.242;2023-03-12T15:53:27;5.47;;;1.40;;
69334;SDS011;56477;52.742;15.242;2023-03-12T15:58:37;7.38;;;2.10;;
69334;SDS011;56477;52.742;15.242;2023-03-12T16:01:11;6.65;;;2.13;;
69334;SDS011;56477;52.742;15.242;2023-03-12T16:03:39;6.18;;;1.50;;
69334;SDS011;56477;52.742;15.242;2023-03-12T16:06:25;3.75;;;1.25;;
69334;SDS011;56477;52.742;15.242;2023-03-12T16:08:54;4.73;;;1.03;;
69334;SDS011;56477;52.742;15.242;2023-03-12T16:11:31;4.07;;;1.00;;
69334;SDS011;56477;52.742;15.242;2023-03-12T16:14:21;5.10;;;1.20;;
69334;SDS011;56477;52.742;15.242;2023-03-12T16:16:52;3.75;;;0.60;;
69334;SDS011;56477;52.742;15.242;2023-03-12T16:19:18;5.45;;;1.58;;
69334;SDS011;56477;52.742;15.242;2023-03-12T16:21:46;5.80;;;0.90;;
69334;SDS011;56477;52.742;15.242;2023-03-12T16:24:13;5.70;;;1.10;;
69334;SDS011;56477;52.742;15.242;2023-03-12T16:29:13;8.45;;;1.98;;
69334;SDS011;56477;52.742;15.242;2023-03-12T16:31:41;6.47;;;1.77;;
69334;SDS011;56477;52.742;15.242;2023-03-12T16:34:08;8.23;;;1.73;;
69334;SDS011;56477;52.742;15.242;2023-03-12T16:36:36;7.20;;;1.95;;
69334;SDS011;56477;52.742;15.242;2023-03-12T16:39:02;8.57;;;2.28;;
69334;SDS011;56477;52.742;15.242;2023-03-12T16:41:28;7.22;;;2.55;;
69334;SDS011;56477;52.742;15.242;2023-03-12T16:43:56;6.78;;;2.90;;
69334;SDS011;56477;52.742;15.242;2023-03-12T16:46:26;9.50;;;3.07;;
69334;SDS011;56477;52.742;15.242;2023-03-12T16:48:55;10.45;;;2.90;;
69334;SDS011;56477;52.742;15.242;2023-03-12T16:51:21;10.95;;;3.10;;
69334;SDS011;56477;52.742;15.242;2023-03-12T16:53:47;8.45;;;2.63;;
69334;SDS011;56477;52.742;15.242;2023-03-12T16:56:17;7.90;;;2.20;;
69334;SDS011;56477;52.742;15.242;2023-03-12T16:58:46;6.57;;;1.90;;
69334;SDS011;56477;52.742;15.242;2023-03-12T17:01:15;5.65;;;2.03;;
69334;SDS011;56477;52.742;15.242;2023-03-12T17:03:46;4.88;;;1.52;;
69334;SDS011;56477;52.742;15.242;2023-03-12T17:06:22;7.03;;;2.00;;
69334;SDS011;56477;52.742;15.242;2023-03-12T17:08:50;5.93;;;1.43;;
69334;SDS011;56477;52.742;15.242;2023-03-12T17:11:20;7.00;;;1.60;;
69334;SDS011;56477;52.742;15.242;2023-03-12T17:13:50;6.22;;;2.20;;
69334;SDS011;56477;52.742;15.242;2023-03-12T17:16:19;12.27;;;2.35;;
69334;SDS011;56477;52.742;15.242;2023-03-12T17:18:45;8.07;;;2.10;;